Time;durP1;ratioP1;P1;durP2;ratioP2;P2;SDS_P1;SDS_P2;PMS_P1;PMS_P2;Temp;Humidity;BMP_temperature;BMP_pressure;BME280_temperature;BME280_humidity;BME280_pressure;Samples;Min_cycle;Max_cycle;Signal;HPM_P1;HPM_P2
2022/02/17 00:01:46;;;;;;;3.15;1.02;;;27.40;62.00;;;;;;4125871;28;20127;-61
2022/02/17 00:04:09;;;;;;;1.65;0.90;;;27.40;62.00;;;;;;4122597;28;20050;-61
2022/02/17 00:06:31;;;;;;;3.78;0.90;;;27.40;61.90;;;;;;4135027;28;20055;-61
2022/02/17 00:08:54;;;;;;;1.20;0.68;;;27.50;61.90;;;;;;4122440;28;20041;-61
2022/02/17 00:11:16;;;;;;;3.10;0.70;;;27.50;61.70;;;;;;4122994;28;20041;-61
2022/02/17 00:13:38;;;;;;;1.35;0.68;;;27.50;61.60;;;;;;4133869;28;22141;-61
2022/02/17 00:16:01;;;;;;;1.63;0.68;;;27.50;61.40;;;;;;4129973;28;20685;-61
2022/02/17 00:18:23;;;;;;;0.63;0.63;;;27.50;61.30;;;;;;4110703;28;20054;-59
2022/02/17 00:20:46;;;;;;;2.15;0.73;;;27.50;61.20;;;;;;4129888;28;20060;-60
2022/02/17 00:23:08;;;;;;;1.25;0.70;;;27.60;61.50;;;;;;4130479;28;20923;-60
2022/02/17 00:25:31;;;;;;;1.48;0.50;;;27.60;61.70;;;;;;4123657;28;20114;-59
2022/02/17 00:27:53;;;;;;;2.08;0.70;;;27.60;61.60;;;;;;4115670;28;20159;-61
2022/02/17 00:30:16;;;;;;;0.45;0.40;;;27.70;61.70;;;;;;4133894;28;20056;-61
2022/02/17 00:32:39;;;;;;;1.52;0.73;;;27.70;61.70;;;;;;4124974;28;20402;-60
2022/02/17 00:35:03;;;;;;;4.78;0.93;;;27.70;61.70;;;;;;4129294;28;20048;-61
2022/02/17 00:37:25;;;;;;;2.63;1.10;;;27.80;61.60;;;;;;4136835;28;20102;-60
2022/02/17 00:39:48;;;;;;;2.65;1.20;;;27.80;61.40;;;;;;4127424;28;20125;-60
2022/02/17 00:42:10;;;;;;;1.98;1.10;;;27.80;61.20;;;;;;4124855;28;20046;-61
2022/02/17 00:44:33;;;;;;;3.22;1.35;;;27.90;60.90;;;;;;4118848;28;20037;-61
2022/02/17 00:46:56;;;;;;;3.63;1.48;;;27.90;60.80;;;;;;4109544;28;20498;-59
2022/02/17 00:49:18;;;;;;;2.65;1.48;;;27.90;60.50;;;;;;4125108;28;20040;-63
2022/02/17 00:51:41;;;;;;;2.30;1.27;;;27.90;60.50;;;;;;4121328;28;20052;-60
2022/02/17 00:54:03;;;;;;;2.70;1.27;;;28.00;60.40;;;;;;4125979;28;20274;-60
2022/02/17 00:56:26;;;;;;;8.63;1.52;;;28.00;60.30;;;;;;4124529;28;20067;-61
2022/02/17 00:58:49;;;;;;;4.40;1.40;;;28.00;60.20;;;;;;4133057;28;20043;-61
2022/02/17 01:01:11;;;;;;;4.10;1.50;;;28.00;60.30;;;;;;4128760;28;20048;-60
2022/02/17 01:03:34;;;;;;;4.82;1.73;;;28.00;60.40;;;;;;4130125;28;20043;-59
2022/02/17 01:05:57;;;;;;;2.92;1.00;;;28.10;60.50;;;;;;4144156;28;20056;-59
2022/02/17 01:08:19;;;;;;;3.05;1.02;;;28.10;60.40;;;;;;4137526;28;20047;-60
2022/02/17 01:10:42;;;;;;;1.20;0.77;;;28.10;60.30;;;;;;4138856;28;20089;-60
2022/02/17 01:13:05;;;;;;;1.63;1.00;;;28.10;60.20;;;;;;4143530;28;21678;-59
2022/02/17 01:15:28;;;;;;;2.55;1.27;;;28.10;60.20;;;;;;4142015;28;20455;-60
2022/02/17 01:17:50;;;;;;;2.83;1.00;;;28.20;60.20;;;;;;4135948;28;20036;-60
2022/02/17 01:20:13;;;;;;;2.25;1.13;;;28.20;60.10;;;;;;4139535;28;21647;-59
2022/02/17 01:22:36;;;;;;;1.50;0.83;;;28.20;60.10;;;;;;4141203;28;20499;-60
2022/02/17 01:24:58;;;;;;;2.78;0.73;;;28.20;60.00;;;;;;4133867;28;20159;-59
2022/02/17 01:27:20;;;;;;;1.17;0.60;;;28.30;60.00;;;;;;4140964;28;20121;-60
2022/02/17 01:29:43;;;;;;;0.77;0.60;;;28.30;60.00;;;;;;4146156;28;20523;-60
2022/02/17 01:32:06;;;;;;;0.98;0.52;;;28.30;60.10;;;;;;4136635;28;20044;-60
2022/02/17 01:34:28;;;;;;;1.70;0.60;;;28.30;60.00;;;;;;4138379;28;20041;-60
2022/02/17 01:36:51;;;;;;;1.73;0.80;;;28.40;60.00;;;;;;4149385;28;20090;-60
2022/02/17 01:39:13;;;;;;;0.55;0.40;;;28.40;59.90;;;;;;4139407;28;20043;-60
2022/02/17 01:41:36;;;;;;;0.85;0.60;;;28.40;59.90;;;;;;4139969;28;20032;-59
2022/02/17 01:44:02;;;;;;;0.50;0.40;;;28.40;59.80;;;;;;4149268;28;20040;-60
2022/02/17 01:46:38;;;;;;;1.10;0.60;;;28.40;59.80;;;;;;4140088;28;20044;-59
2022/02/17 01:49:01;;;;;;;0.98;0.47;;;28.50;59.80;;;;;;4148723;28;20036;-60
2022/02/17 01:51:23;;;;;;;1.52;0.75;;;28.50;59.80;;;;;;4138587;28;20631;-59
2022/02/17 01:53:46;;;;;;;0.55;0.40;;;28.50;59.70;;;;;;4140117;28;20104;-59
2022/02/17 01:56:08;;;;;;;0.75;0.50;;;28.50;59.70;;;;;;4149759;28;20119;-60
2022/02/17 01:58:33;;;;;;;2.08;0.77;;;28.60;59.70;;;;;;4139357;28;20031;-60
2022/02/17 02:00:56;;;;;;;0.70;0.55;;;28.50;59.60;;;;;;4139928;28;21847;-60
2022/02/17 02:03:18;;;;;;;1.23;0.70;;;28.60;59.60;;;;;;4149315;28;20066;-59
2022/02/17 02:05:41;;;;;;;0.50;0.50;;;28.60;59.60;;;;;;4140202;28;20051;-59
2022/02/17 02:08:06;;;;;;;0.77;0.40;;;28.70;59.50;;;;;;4139709;28;20052;-60
2022/02/17 02:10:28;;;;;;;0.73;0.43;;;28.70;59.50;;;;;;4147662;28;20024;-60
2022/02/17 02:12:50;;;;;;;1.52;0.43;;;28.70;59.40;;;;;;4139577;28;20511;-60
2022/02/17 02:15:14;;;;;;;0.50;0.47;;;28.80;59.50;;;;;;4139524;28;20907;-60
2022/02/17 02:17:38;;;;;;;0.40;0.40;;;28.80;59.40;;;;;;4133072;28;20043;-60
2022/02/17 02:20:03;;;;;;;0.50;0.50;;;28.80;59.40;;;;;;4139546;28;20047;-60
2022/02/17 02:22:30;;;;;;;1.05;0.60;;;28.80;59.30;;;;;;4145979;28;20049;-60
2022/02/17 02:24:55;;;;;;;0.47;0.40;;;28.90;59.30;;;;;;4141214;28;20060;-60
2022/02/17 02:27:17;;;;;;;0.50;0.40;;;28.90;59.30;;;;;;4140998;28;20063;-60
2022/02/17 02:29:40;;;;;;;0.73;0.30;;;28.90;59.20;;;;;;4149540;28;20044;-60
2022/02/17 02:32:02;;;;;;;0.40;0.30;;;28.90;59.20;;;;;;4141783;28;20114;-61
2022/02/17 02:34:25;;;;;;;0.70;0.50;;;28.90;59.20;;;;;;4141147;28;20088;-61
2022/02/17 02:36:47;;;;;;;0.73;0.43;;;29.00;59.20;;;;;;4148978;28;20054;-60
2022/02/17 02:39:09;;;;;;;0.40;0.40;;;29.00;59.20;;;;;;4146981;28;20067;-61
2022/02/17 02:41:32;;;;;;;0.70;0.50;;;29.00;59.10;;;;;;4140649;28;20050;-61
2022/02/17 02:43:58;;;;;;;0.68;0.50;;;29.00;59.10;;;;;;4146049;28;20043;-60
2022/02/17 02:46:21;;;;;;;0.85;0.40;;;29.10;59.10;;;;;;4142531;28;20513;-61
2022/02/17 02:48:43;;;;;;;0.30;0.30;;;29.10;59.10;;;;;;4136843;28;20036;-60
2022/02/17 02:51:06;;;;;;;1.48;0.47;;;29.10;59.00;;;;;;4146619;28;22124;-59
2022/02/17 02:53:30;;;;;;;0.30;0.30;;;29.10;59.10;;;;;;4142589;28;20052;-61
2022/02/17 02:55:52;;;;;;;0.85;0.50;;;29.20;59.40;;;;;;4135188;28;20121;-61
2022/02/17 02:58:16;;;;;;;1.70;0.90;;;29.20;59.60;;;;;;4141526;28;21012;-59
2022/02/17 03:00:40;;;;;;;1.27;1.13;;;29.20;57.10;;;;;;4139551;28;20072;-61
2022/02/17 03:03:02;;;;;;;1.63;1.00;;;29.10;55.50;;;;;;4137303;28;20044;-62
2022/02/17 03:05:25;;;;;;;1.35;0.90;;;28.90;54.60;;;;;;4146535;28;20053;-62
2022/02/17 03:07:48;;;;;;;2.22;1.35;;;28.70;54.00;;;;;;4134242;28;20045;-62
2022/02/17 03:10:11;;;;;;;1.85;1.33;;;28.40;53.20;;;;;;4120004;28;20048;-63
2022/02/17 03:12:37;;;;;;;2.78;1.30;;;28.30;53.60;;;;;;4135985;28;20044;-64
2022/02/17 03:14:59;;;;;;;2.53;1.35;;;28.00;53.00;;;;;;4130141;28;20059;-59
2022/02/17 03:17:22;;;;;;;2.00;1.25;;;27.80;52.90;;;;;;4140639;28;20044;-59
2022/02/17 03:19:44;;;;;;;1.63;1.38;;;27.70;53.70;;;;;;4136280;28;20044;-59
2022/02/17 03:22:07;;;;;;;2.42;1.45;;;27.50;53.20;;;;;;4137381;28;20120;-59
2022/02/17 03:24:29;;;;;;;2.13;1.40;;;27.40;53.30;;;;;;4135775;28;20045;-60
2022/02/17 03:26:52;;;;;;;1.77;1.50;;;27.30;53.60;;;;;;4131805;28;20079;-59
2022/02/17 03:29:14;;;;;;;2.60;1.60;;;27.10;53.50;;;;;;4136591;28;20121;-61
2022/02/17 03:31:37;;;;;;;1.95;1.38;;;27.00;53.90;;;;;;4132071;28;20028;-62
2022/02/17 03:33:59;;;;;;;2.17;1.45;;;26.90;53.70;;;;;;4131179;28;20065;-61
2022/02/17 03:36:21;;;;;;;2.33;1.40;;;26.80;54.60;;;;;;4140354;28;20044;-60
2022/02/17 03:38:44;;;;;;;1.95;1.35;;;26.70;54.10;;;;;;4129589;28;20036;-60
2022/02/17 03:41:06;;;;;;;2.22;1.50;;;26.60;54.90;;;;;;4127916;28;21151;-60
2022/02/17 03:43:29;;;;;;;2.53;1.60;;;26.50;54.50;;;;;;4136271;28;20669;-60
2022/02/17 03:45:51;;;;;;;2.58;1.58;;;26.50;54.70;;;;;;4130336;28;20179;-60
2022/02/17 03:48:14;;;;;;;1.80;1.48;;;26.40;54.60;;;;;;4121956;28;20155;-61
2022/02/17 03:50:36;;;;;;;3.05;1.70;;;26.30;54.60;;;;;;4133668;28;20131;-59
2022/02/17 03:52:59;;;;;;;1.88;1.60;;;26.30;55.10;;;;;;4134389;28;20791;-62
2022/02/17 03:55:22;;;;;;;3.28;1.50;;;26.20;54.90;;;;;;4140330;28;20492;-63
2022/02/17 03:57:45;;;;;;;2.20;1.43;;;26.10;55.50;;;;;;4130594;28;20044;-61
2022/02/17 04:00:08;;;;;;;2.55;1.70;;;26.00;55.00;;;;;;4133661;28;20051;-61
2022/02/17 04:02:30;;;;;;;1.67;1.58;;;25.90;54.80;;;;;;4119782;28;20052;-61
2022/02/17 04:04:53;;;;;;;1.50;1.40;;;25.90;55.50;;;;;;4131904;28;20052;-61
2022/02/17 04:07:15;;;;;;;3.30;1.85;;;25.80;56.00;;;;;;4139512;28;20048;-60
2022/02/17 04:09:38;;;;;;;3.47;1.80;;;25.70;55.80;;;;;;4129387;28;20050;-60
2022/02/17 04:12:01;;;;;;;2.85;1.60;;;25.70;56.20;;;;;;4132958;28;20052;-59
2022/02/17 04:14:23;;;;;;;1.45;1.33;;;25.60;55.90;;;;;;4140513;28;20040;-59
2022/02/17 04:16:47;;;;;;;2.10;1.35;;;25.60;55.90;;;;;;4131788;28;20055;-60
2022/02/17 04:19:09;;;;;;;2.72;2.00;;;25.60;56.10;;;;;;4141223;28;20056;-61
2022/02/17 04:21:32;;;;;;;2.00;1.58;;;25.50;56.00;;;;;;4138770;28;20032;-62
2022/02/17 04:23:54;;;;;;;1.95;1.60;;;25.50;56.10;;;;;;4135986;28;20044;-60
2022/02/17 04:26:19;;;;;;;2.25;1.40;;;25.50;56.40;;;;;;4145351;28;20439;-59
2022/02/17 04:28:42;;;;;;;2.83;1.73;;;25.40;56.10;;;;;;4131353;28;20044;-61
2022/02/17 04:31:06;;;;;;;3.25;1.88;;;25.40;56.40;;;;;;4134990;28;20044;-59
2022/02/17 04:33:28;;;;;;;2.22;1.58;;;25.30;56.10;;;;;;4135511;28;20080;-59
2022/02/17 04:35:51;;;;;;;28.48;2.13;;;25.30;56.10;;;;;;4135880;28;20029;-58
2022/02/17 04:38:13;;;;;;;3.70;1.80;;;25.30;56.10;;;;;;4147622;28;20040;-61
2022/02/17 04:43:16;;;;;;;3.00;1.77;;;25.20;56.00;;;;;;4142520;28;20044;-61
2022/02/17 04:45:38;;;;;;;8.80;1.30;;;25.20;56.20;;;;;;4140116;28;20068;-60
2022/02/17 04:48:04;;;;;;;4.70;1.30;;;25.30;56.70;;;;;;4143256;28;20168;-57
2022/02/17 04:50:27;;;;;;;2.53;1.50;;;25.40;56.80;;;;;;4137502;28;20401;-60
2022/02/17 04:52:50;;;;;;;4.53;1.23;;;25.70;56.70;;;;;;4137888;28;21058;-60
2022/02/17 04:55:12;;;;;;;1.45;1.10;;;26.00;56.60;;;;;;4141353;28;20063;-61
2022/02/17 04:57:34;;;;;;;3.50;1.30;;;26.20;56.50;;;;;;4137259;28;20174;-61
2022/02/17 04:59:57;;;;;;;1.92;1.02;;;26.40;56.40;;;;;;4148629;28;20036;-59
2022/02/17 05:02:19;;;;;;;1.83;1.20;;;26.60;56.30;;;;;;4136585;28;20124;-59
2022/02/17 05:04:42;;;;;;;2.08;0.88;;;26.80;56.20;;;;;;4137936;28;20053;-59
2022/02/17 05:07:08;;;;;;;1.27;0.80;;;27.10;56.20;;;;;;4129388;28;20551;-59
2022/02/17 05:09:30;;;;;;;1.83;0.98;;;27.20;56.00;;;;;;4136795;28;20383;-59
2022/02/17 05:11:52;;;;;;;1.55;1.00;;;27.40;56.10;;;;;;4147012;28;20621;-59
2022/02/17 05:14:15;;;;;;;2.65;1.00;;;27.60;55.90;;;;;;4137470;28;20139;-59
2022/02/17 05:16:37;;;;;;;1.83;0.93;;;27.80;55.70;;;;;;4137812;28;21355;-59
2022/02/17 05:19:00;;;;;;;1.70;0.70;;;28.00;55.70;;;;;;4147616;28;20100;-59
2022/02/17 05:21:23;;;;;;;0.85;0.70;;;28.20;55.60;;;;;;4140339;28;20045;-59
2022/02/17 05:23:46;;;;;;;2.90;0.80;;;28.40;55.40;;;;;;4145978;28;20816;-58
2022/02/17 05:26:08;;;;;;;1.05;0.68;;;28.50;55.30;;;;;;4139639;28;21214;-59
2022/02/17 05:28:30;;;;;;;1.67;0.60;;;28.70;55.30;;;;;;4139534;28;20039;-59
2022/02/17 05:30:53;;;;;;;1.30;0.75;;;28.90;55.00;;;;;;4150126;28;20068;-59
2022/02/17 05:33:16;;;;;;;1.42;0.60;;;29.10;55.00;;;;;;4140201;28;20044;-58
2022/02/17 05:35:39;;;;;;;1.00;0.82;;;29.20;54.80;;;;;;4141115;28;21527;-58
2022/02/17 05:38:02;;;;;;;1.25;0.57;;;29.40;54.70;;;;;;4143650;28;20127;-59
2022/02/17 05:40:25;;;;;;;0.65;0.55;;;29.50;54.60;;;;;;4140285;28;20037;-58
2022/02/17 05:42:47;;;;;;;0.77;0.60;;;29.70;54.50;;;;;;4146764;28;20048;-59
2022/02/17 05:45:10;;;;;;;0.80;0.70;;;29.80;54.40;;;;;;4137642;28;21257;-58
2022/02/17 05:47:33;;;;;;;0.53;0.50;;;30.00;54.30;;;;;;4135898;28;20048;-58
2022/02/17 05:49:55;;;;;;;;;;;30.00;54.40;;;;;;4136168;28;20567;-59
2022/02/17 05:52:18;;;;;;;0.77;0.57;;;30.10;54.40;;;;;;4135870;28;20806;-59
2022/02/17 05:54:40;;;;;;;0.75;0.52;;;30.20;54.30;;;;;;4135353;28;20067;-58
2022/02/17 05:57:03;;;;;;;1.30;0.60;;;30.30;54.30;;;;;;4145256;28;20036;-58
2022/02/17 05:59:26;;;;;;;0.93;0.60;;;30.30;54.20;;;;;;4134615;28;20040;-58
2022/02/17 06:01:49;;;;;;;0.75;0.50;;;30.40;54.30;;;;;;4136108;28;22002;-58
2022/02/17 06:04:11;;;;;;;1.05;0.65;;;30.40;54.30;;;;;;4145984;28;20083;-58
2022/02/17 06:06:36;;;;;;;0.93;0.47;;;30.50;54.30;;;;;;4119960;28;20049;-58
2022/02/17 06:08:58;;;;;;;1.05;0.47;;;30.50;54.30;;;;;;4139661;28;20041;-58
2022/02/17 06:11:21;;;;;;;0.60;0.40;;;30.50;54.30;;;;;;4143237;28;20048;-58
2022/02/17 06:13:43;;;;;;;0.93;0.68;;;30.50;54.30;;;;;;4133528;28;20056;-59
2022/02/17 06:16:06;;;;;;;0.77;0.65;;;30.60;54.30;;;;;;4131915;28;20123;-59
2022/02/17 06:18:28;;;;;;;2.07;1.40;;;30.60;54.90;;;;;;4144382;28;20472;-59
2022/02/17 06:20:51;;;;;;;2.50;1.60;;;30.60;53.40;;;;;;4138561;28;20048;-59
2022/02/17 06:23:13;;;;;;;2.90;1.70;;;30.40;52.40;;;;;;4138754;28;20130;-57
2022/02/17 06:25:36;;;;;;;2.95;1.73;;;30.20;51.90;;;;;;4147091;28;20063;-59
2022/02/17 06:27:59;;;;;;;2.33;1.60;;;30.00;51.50;;;;;;4143261;28;20055;-59
2022/02/17 06:30:23;;;;;;;3.13;1.83;;;29.70;51.30;;;;;;4141111;28;20131;-54
2022/02/17 06:32:51;;;;;;;2.95;1.60;;;29.40;51.20;;;;;;4148467;28;20094;-60
2022/02/17 06:35:16;;;;;;;2.60;1.75;;;29.20;51.10;;;;;;4140645;28;20047;-59
2022/02/17 06:37:38;;;;;;;2.70;1.60;;;29.00;51.20;;;;;;4144964;28;20075;-59
2022/02/17 06:40:01;;;;;;;2.72;1.63;;;28.80;51.30;;;;;;4144606;28;20090;-60
2022/02/17 06:42:23;;;;;;;2.35;1.58;;;28.70;51.40;;;;;;4136875;28;20102;-60
2022/02/17 06:44:46;;;;;;;3.08;1.75;;;28.50;51.50;;;;;;4140727;28;21595;-59
2022/02/17 06:47:08;;;;;;;2.45;1.67;;;28.30;51.60;;;;;;4149391;28;20059;-60
2022/02/17 06:49:32;;;;;;;3.30;1.90;;;28.20;51.90;;;;;;4141200;28;20051;-60
2022/02/17 06:51:55;;;;;;;3.78;2.03;;;27.90;51.90;;;;;;4145298;28;20045;-58
2022/02/17 06:54:17;;;;;;;2.95;1.77;;;27.80;51.90;;;;;;4149395;28;20037;-58
2022/02/17 06:56:40;;;;;;;2.97;1.88;;;27.70;52.20;;;;;;4138208;28;20054;-58
2022/02/17 06:59:04;;;;;;;2.55;1.80;;;27.50;52.20;;;;;;4140338;28;20075;-58
2022/02/17 07:01:26;;;;;;;3.00;1.90;;;27.40;52.40;;;;;;4143829;28;20040;-59
2022/02/17 07:03:49;;;;;;;3.25;1.92;;;27.30;52.50;;;;;;4136553;28;20062;-59
2022/02/17 07:06:11;;;;;;;4.15;2.10;;;27.20;52.60;;;;;;4133463;28;20063;-57
2022/02/17 07:08:34;;;;;;;3.42;1.92;;;27.00;52.80;;;;;;4144615;28;20117;-59
2022/02/17 07:10:59;;;;;;;2.78;1.90;;;27.00;52.90;;;;;;4122119;28;20039;-61
2022/02/17 07:13:28;;;;;;;3.60;1.73;;;26.90;53.20;;;;;;4134522;28;20644;-59
2022/02/17 07:15:51;;;;;;;2.95;2.00;;;26.70;53.30;;;;;;4137025;28;20037;-59
2022/02/17 07:18:14;;;;;;;2.60;1.83;;;26.60;53.10;;;;;;4133605;28;20033;-59
2022/02/17 07:20:39;;;;;;;3.13;1.70;;;26.50;52.90;;;;;;4140663;28;20064;-58
2022/02/17 07:23:03;;;;;;;2.45;1.80;;;26.40;52.90;;;;;;4133206;28;21048;-60
2022/02/17 07:25:26;;;;;;;2.10;1.67;;;26.30;52.80;;;;;;4130976;28;20033;-59
2022/02/17 07:27:48;;;;;;;2.45;1.58;;;26.20;52.90;;;;;;4142000;28;20048;-58
2022/02/17 07:30:11;;;;;;;2.38;1.77;;;26.10;52.90;;;;;;4132221;28;20122;-58
2022/02/17 07:32:33;;;;;;;1.97;1.63;;;26.00;53.00;;;;;;4133022;28;20090;-58
2022/02/17 07:34:56;;;;;;;2.25;1.60;;;26.00;53.20;;;;;;4139206;28;20079;-58
2022/02/17 07:37:20;;;;;;;2.75;1.77;;;25.90;53.20;;;;;;4138425;28;20418;-59
2022/02/17 07:39:43;;;;;;;4.25;2.17;;;25.80;53.30;;;;;;4112335;28;20041;-58
2022/02/17 07:42:06;;;;;;;2.70;1.80;;;25.80;54.10;;;;;;4137163;28;20046;-59
2022/02/17 07:44:28;;;;;;;1.75;1.40;;;25.80;54.50;;;;;;4133473;28;20259;-59
2022/02/17 07:46:52;;;;;;;1.83;1.47;;;25.90;55.00;;;;;;4129515;28;20410;-57
2022/02/17 07:49:14;;;;;;;2.38;1.60;;;26.00;55.40;;;;;;4142569;28;21941;-59
2022/02/17 07:51:38;;;;;;;2.78;1.90;;;26.00;54.70;;;;;;4135098;28;20056;-60
2022/02/17 07:54:01;;;;;;;3.75;1.80;;;25.90;54.30;;;;;;4130952;28;20121;-59
2022/02/17 07:56:23;;;;;;;2.10;1.73;;;25.80;54.10;;;;;;4140124;28;20052;-59
2022/02/17 07:58:46;;;;;;;3.35;2.10;;;25.70;53.90;;;;;;4135962;28;20454;-59
2022/02/17 08:01:09;;;;;;;2.00;1.60;;;25.60;53.90;;;;;;4131149;28;20036;-59
2022/02/17 08:03:33;;;;;;;2.67;1.98;;;25.60;54.70;;;;;;4135749;28;20941;-56
2022/02/17 08:05:55;;;;;;;1.80;1.33;;;25.60;55.20;;;;;;4136307;28;20056;-60
2022/02/17 08:08:19;;;;;;;1.48;1.08;;;25.70;55.60;;;;;;4133964;28;20048;-59
2022/02/17 08:10:41;;;;;;;2.30;1.50;;;25.90;55.80;;;;;;4140446;28;20924;-57
2022/02/17 08:13:05;;;;;;;2.42;1.60;;;26.00;55.90;;;;;;4137960;28;20095;-60
2022/02/17 08:15:28;;;;;;;1.50;1.20;;;26.10;55.90;;;;;;4117887;28;20041;-59
2022/02/17 08:17:51;;;;;;;1.52;1.17;;;26.20;55.80;;;;;;4137921;28;22326;-59
2022/02/17 08:20:13;;;;;;;1.30;1.17;;;26.40;56.00;;;;;;4138340;28;20036;-59
2022/02/17 08:22:36;;;;;;;1.85;1.00;;;26.50;55.90;;;;;;4135128;28;20032;-59
2022/02/17 08:24:58;;;;;;;1.70;0.80;;;26.60;55.90;;;;;;4136869;28;20572;-59
2022/02/17 08:27:21;;;;;;;1.35;1.05;;;26.70;56.00;;;;;;4141648;28;20169;-60
2022/02/17 08:29:43;;;;;;;1.42;0.70;;;26.80;55.90;;;;;;4117128;28;20037;-59
2022/02/17 08:32:06;;;;;;;0.85;0.70;;;26.90;55.90;;;;;;4133926;28;20036;-58
2022/02/17 08:34:29;;;;;;;2.70;0.93;;;27.00;55.90;;;;;;4127235;28;20781;-59
2022/02/17 08:36:52;;;;;;;1.17;0.75;;;27.10;55.90;;;;;;4133873;28;20025;-59
2022/02/17 08:39:14;;;;;;;1.88;0.95;;;27.20;55.90;;;;;;4118214;28;20052;-58
2022/02/17 08:41:37;;;;;;;1.20;0.70;;;27.20;55.90;;;;;;4142523;28;20036;-59
2022/02/17 08:44:00;;;;;;;0.70;0.63;;;27.30;55.90;;;;;;4122676;28;20121;-60
2022/02/17 08:46:22;;;;;;;1.25;0.80;;;27.30;55.80;;;;;;4132335;28;20045;-58
2022/02/17 08:48:45;;;;;;;0.77;0.70;;;27.40;55.80;;;;;;4140945;28;20214;-59
2022/02/17 08:51:07;;;;;;;1.65;0.77;;;27.50;55.80;;;;;;4130913;28;20071;-59
2022/02/17 08:53:30;;;;;;;1.15;0.65;;;27.50;55.80;;;;;;4131620;28;20785;-60
2022/02/17 08:55:52;;;;;;;0.82;0.68;;;27.60;55.90;;;;;;4140428;28;20893;-59
2022/02/17 08:58:15;;;;;;;0.73;0.55;;;27.70;55.90;;;;;;4134010;28;20033;-59
2022/02/17 09:00:38;;;;;;;1.08;0.70;;;27.70;55.90;;;;;;4131627;28;20045;-59
2022/02/17 09:03:00;;;;;;;0.77;0.60;;;27.80;56.00;;;;;;4140557;28;20490;-57
2022/02/17 09:05:24;;;;;;;1.65;0.65;;;27.80;55.90;;;;;;4134911;28;20060;-58
2022/02/17 09:07:46;;;;;;;;;;;27.90;56.00;;;;;;4135138;28;20048;-58
2022/02/17 09:10:09;;;;;;;1.20;0.70;;;27.90;56.00;;;;;;4141649;28;20778;-57
2022/02/17 09:12:35;;;;;;;1.02;0.70;;;27.90;56.00;;;;;;4135940;28;20040;-59
2022/02/17 09:14:58;;;;;;;1.17;0.70;;;28.00;56.00;;;;;;4133064;28;20066;-57
2022/02/17 09:17:21;;;;;;;1.02;0.73;;;28.00;56.00;;;;;;4140819;28;20052;-59
2022/02/17 09:19:43;;;;;;;2.05;0.80;;;28.00;56.00;;;;;;4134554;28;20045;-59
2022/02/17 09:22:06;;;;;;;0.77;0.43;;;28.10;56.00;;;;;;4133969;28;20127;-57
2022/02/17 09:24:29;;;;;;;1.02;0.70;;;28.10;56.00;;;;;;4141776;28;20040;-58
2022/02/17 09:26:51;;;;;;;1.20;0.90;;;28.20;56.10;;;;;;4136671;28;20147;-59
2022/02/17 09:29:14;;;;;;;0.77;0.60;;;28.20;56.00;;;;;;4134837;28;20040;-58
2022/02/17 09:31:36;;;;;;;1.15;0.73;;;28.20;56.00;;;;;;4142405;28;20411;-56
2022/02/17 09:33:59;;;;;;;2.40;0.80;;;28.20;56.00;;;;;;4141870;28;20037;-58
2022/02/17 09:36:25;;;;;;;2.42;0.73;;;28.20;56.10;;;;;;4136497;28;20037;-57
2022/02/17 09:38:48;;;;;;;1.17;0.57;;;28.30;56.10;;;;;;4144029;28;20886;-58
2022/02/17 09:41:16;;;;;;;0.55;0.43;;;28.30;56.10;;;;;;4140321;28;20491;-58
2022/02/17 09:43:39;;;;;;;1.42;0.50;;;28.30;56.70;;;;;;4134709;28;20133;-58
2022/02/17 09:46:02;;;;;;;0.90;0.70;;;28.30;56.10;;;;;;4143865;28;20049;-58
2022/02/17 09:48:25;;;;;;;1.23;0.60;;;28.40;56.20;;;;;;4134435;28;20099;-59
2022/02/17 09:50:48;;;;;;;0.90;0.70;;;28.40;56.20;;;;;;4133954;28;20040;-57
2022/02/17 09:53:13;;;;;;;1.83;0.50;;;28.40;56.10;;;;;;4141689;28;20044;-59
2022/02/17 09:55:35;;;;;;;1.10;0.75;;;28.40;56.20;;;;;;4135438;28;20047;-59
2022/02/17 09:57:58;;;;;;;0.90;0.63;;;28.40;56.20;;;;;;4136680;28;20040;-58
2022/02/17 10:00:20;;;;;;;1.03;0.60;;;28.50;56.20;;;;;;4144727;28;20877;-59
2022/02/17 10:02:44;;;;;;;0.88;0.60;;;28.50;56.30;;;;;;4136804;28;20328;-58
2022/02/17 10:05:08;;;;;;;1.10;0.55;;;28.50;56.30;;;;;;4133734;28;20129;-58
2022/02/17 10:07:35;;;;;;;1.42;0.85;;;28.50;56.20;;;;;;4144425;28;20094;-59
2022/02/17 10:10:07;;;;;;;0.65;0.50;;;28.50;56.30;;;;;;4136668;28;20116;-59
2022/02/17 10:12:53;;;;;;;1.85;0.80;;;28.50;56.30;;;;;;4145618;28;20153;-59
2022/02/17 10:15:25;;;;;;;0.65;0.40;;;28.50;56.30;;;;;;4139236;28;20047;-59
2022/02/17 10:18:13;;;;;;;1.23;0.55;;;28.60;56.40;;;;;;4135811;28;20083;-58
2022/02/17 10:20:57;;;;;;;1.55;0.50;;;28.60;56.40;;;;;;4138377;28;20044;-57
2022/02/17 10:23:23;;;;;;;2.58;0.93;;;28.60;56.50;;;;;;4133955;28;20052;-62
2022/02/17 10:26:01;;;;;;;2.25;0.80;;;28.60;56.60;;;;;;4139739;28;20520;-59
2022/02/17 10:28:25;;;;;;;0.73;0.70;;;28.60;57.60;;;;;;4143728;28;20085;-57
2022/02/17 10:30:47;;;;;;;;;;;28.60;58.00;;;;;;4135765;28;20028;-59
2022/02/17 10:33:10;;;;;;;1.92;1.00;;;28.60;58.20;;;;;;4132318;28;19960;-60
2022/02/17 10:35:32;;;;;;;1.98;0.60;;;28.60;58.40;;;;;;4141222;28;20074;-59
2022/02/17 10:37:58;;;;;;;0.95;0.80;;;28.70;58.60;;;;;;4135018;28;20136;-60
2022/02/17 10:40:35;;;;;;;1.60;0.85;;;28.70;58.80;;;;;;4132977;28;20824;-60
2022/02/17 10:43:12;;;;;;;1.67;0.70;;;28.70;59.00;;;;;;4120118;28;20045;-59
2022/02/17 10:45:35;;;;;;;1.33;0.68;;;28.70;59.10;;;;;;4138714;28;20036;-58
2022/02/17 10:48:21;;;;;;;0.82;0.60;;;28.70;59.20;;;;;;4135728;28;20472;-60
2022/02/17 10:50:49;;;;;;;1.63;1.10;;;28.70;59.20;;;;;;4133694;28;20033;-59
2022/02/17 10:53:19;;;;;;;1.65;0.70;;;28.70;59.40;;;;;;4125036;28;20721;-58
2022/02/17 10:55:58;;;;;;;1.08;0.60;;;28.80;59.50;;;;;;4135551;28;20045;-59
2022/02/17 10:58:29;;;;;;;2.13;0.70;;;28.80;59.90;;;;;;4133747;28;20044;-58
2022/02/17 11:00:52;;;;;;;2.55;0.73;;;28.80;59.60;;;;;;4139166;28;20044;-59
2022/02/17 11:03:15;;;;;;;5.30;0.88;;;28.80;59.70;;;;;;4126415;28;20043;-59
2022/02/17 11:05:40;;;;;;;1.83;0.93;;;28.80;59.80;;;;;;4129265;28;20470;-59
2022/02/17 11:08:03;;;;;;;1.98;0.77;;;28.80;59.90;;;;;;4138952;28;20456;-60
2022/02/17 11:10:26;;;;;;;2.42;0.90;;;28.90;60.00;;;;;;4130225;28;20138;-60
2022/02/17 11:12:48;;;;;;;2.50;1.17;;;28.90;60.10;;;;;;4128685;28;20055;-60
2022/02/17 11:15:11;;;;;;;1.52;0.70;;;28.90;60.20;;;;;;4139501;28;20125;-56
2022/02/17 11:17:36;;;;;;;2.90;1.17;;;28.90;60.40;;;;;;4128016;28;20050;-58
2022/02/17 11:19:59;;;;;;;1.85;0.88;;;28.90;60.60;;;;;;4129050;28;21689;-58
2022/02/17 11:22:22;;;;;;;2.15;0.98;;;28.90;60.70;;;;;;4138931;28;20037;-58
2022/02/17 11:24:54;;;;;;;9.30;1.30;;;29.00;60.80;;;;;;4116799;28;20064;-60
2022/02/17 11:27:18;;;;;;;2.25;1.00;;;29.00;60.90;;;;;;4140712;28;20856;-59
2022/02/17 11:29:42;;;;;;;6.68;1.17;;;29.00;60.90;;;;;;4130214;28;20286;-55
2022/02/17 11:32:11;;;;;;;3.08;1.10;;;29.00;61.00;;;;;;4114222;28;20492;-57
2022/02/17 11:34:44;;;;;;;2.13;0.82;;;29.10;61.20;;;;;;4134809;28;20125;-58
2022/02/17 11:37:22;;;;;;;4.90;1.23;;;29.10;61.20;;;;;;4135990;28;20470;-58
2022/02/17 11:40:09;;;;;;;2.42;1.13;;;29.10;61.20;;;;;;4130139;28;20062;-59
2022/02/17 11:42:34;;;;;;;2.78;1.33;;;29.10;61.30;;;;;;4130573;28;20259;-61
2022/02/17 11:45:11;;;;;;;2.17;0.90;;;29.10;61.30;;;;;;4127733;28;20044;-59
2022/02/17 11:48:12;;;;;;;2.78;0.98;;;29.10;61.30;;;;;;4137074;28;20059;-61
2022/02/17 11:50:40;;;;;;;5.05;1.60;;;29.10;61.30;;;;;;4132552;28;20039;-60
2022/02/17 11:53:24;;;;;;;3.80;1.40;;;29.10;61.20;;;;;;4138035;28;21219;-61
2022/02/17 11:55:46;;;;;;;7.13;1.50;;;29.20;61.40;;;;;;4136003;28;20061;-58
2022/02/17 11:58:48;;;;;;;5.45;1.38;;;29.20;61.40;;;;;;4144903;28;20478;-57
2022/02/17 12:01:23;;;;;;;2.75;1.50;;;29.20;61.50;;;;;;4076087;28;20084;-58
2022/02/17 12:04:20;;;;;;;7.38;1.80;;;29.20;61.50;;;;;;4076879;28;20058;-59
2022/02/17 12:06:47;;;;;;;3.58;1.35;;;29.20;61.50;;;;;;4126556;28;20117;-60
2022/02/17 12:09:39;;;;;;;4.18;1.90;;;29.20;61.50;;;;;;4140137;28;20199;-60
2022/02/17 12:12:14;;;;;;;5.00;1.67;;;29.20;61.60;;;;;;4127365;28;20059;-60
2022/02/17 12:14:38;;;;;;;3.92;2.00;;;29.30;61.70;;;;;;4141322;28;20219;-59
2022/02/17 12:17:04;;;;;;;2.95;1.30;;;29.30;61.80;;;;;;4133196;28;20049;-58
2022/02/17 12:19:28;;;;;;;5.88;1.83;;;29.30;61.70;;;;;;4133907;28;20044;-56
2022/02/17 12:21:52;;;;;;;3.65;1.42;;;29.30;61.80;;;;;;4138241;28;20619;-61
2022/02/17 12:24:16;;;;;;;4.32;1.70;;;29.30;61.80;;;;;;4130169;28;20573;-61
2022/02/17 12:26:47;;;;;;;4.82;1.88;;;29.30;61.30;;;;;;4136840;28;20866;-61
2022/02/17 12:29:26;;;;;;;4.18;1.67;;;29.30;61.80;;;;;;4129730;28;20060;-61
2022/02/17 12:31:49;;;;;;;3.20;1.52;;;29.30;61.80;;;;;;4137537;28;20113;-59
2022/02/17 12:34:12;;;;;;;3.20;1.73;;;29.30;62.50;;;;;;4134426;28;20048;-59
2022/02/17 12:36:37;;;;;;;3.40;1.88;;;29.30;61.80;;;;;;4138985;28;20064;-59